Time;durP1;ratioP1;P1;durP2;ratioP2;P2;SDS_P1;SDS_P2;PMS_P1;PMS_P2;Temp;Humidity;BMP_temperature;BMP_pressure;BME280_temperature;BME280_humidity;BME280_pressure;Samples;Min_cycle;Max_cycle;Signal;HPM_P1;HPM_P2
2021/03/01 00:01:46;;;;;;;7.60;6.43;;;5.30;66.30;;;;;;5095074;28;20174;-47
2021/03/01 00:04:12;;;;;;;7.60;6.53;;;5.20;65.90;;;;;;5096904;28;20227;-51
2021/03/01 00:06:38;;;;;;;8.90;6.60;;;5.20;65.80;;;;;;5097265;28;20194;-47
2021/03/01 00:09:03;;;;;;;7.83;6.07;;;5.20;66.30;;;;;;5096155;28;20169;-55
2021/03/01 00:11:29;;;;;;;8.70;6.07;;;5.20;66.00;;;;;;5096440;28;20272;-57
2021/03/01 00:13:54;;;;;;;7.93;6.43;;;5.00;66.30;;;;;;5097052;28;20557;-58
2021/03/01 00:16:20;;;;;;;7.70;6.40;;;5.00;67.00;;;;;;5096773;28;20205;-48
2021/03/01 00:18:46;;;;;;;7.10;6.20;;;4.90;67.00;;;;;;5096734;28;20173;-48
2021/03/01 00:21:11;;;;;;;7.67;6.23;;;4.80;67.00;;;;;;5095671;28;20162;-48
2021/03/01 00:23:37;;;;;;;8.00;6.17;;;4.80;67.40;;;;;;5097079;28;20170;-53
2021/03/01 00:26:02;;;;;;;7.47;6.03;;;4.70;67.60;;;;;;5096300;28;20196;-55
2021/03/01 00:28:28;;;;;;;7.50;5.97;;;4.70;67.80;;;;;;5096190;28;20180;-50
2021/03/01 00:30:53;;;;;;;6.90;6.07;;;4.80;67.80;;;;;;5095503;28;20512;-47
2021/03/01 00:33:19;;;;;;;8.10;6.33;;;4.80;67.60;;;;;;5095666;28;20169;-52
2021/03/01 00:35:44;;;;;;;9.23;6.67;;;4.90;67.60;;;;;;5096937;28;20556;-51
2021/03/01 00:38:10;;;;;;;6.93;5.33;;;4.90;67.80;;;;;;5096715;28;20558;-53
2021/03/01 00:40:35;;;;;;;8.13;6.40;;;4.80;67.90;;;;;;5096241;28;20162;-53
2021/03/01 00:43:01;;;;;;;7.70;6.23;;;4.80;68.20;;;;;;5096179;28;20173;-54
2021/03/01 00:45:26;;;;;;;8.00;6.43;;;4.80;68.40;;;;;;5096277;28;20205;-52
2021/03/01 00:47:52;;;;;;;6.90;6.10;;;4.60;68.10;;;;;;5096434;28;20185;-47
2021/03/01 00:50:19;;;;;;;11.07;7.03;;;4.60;68.40;;;;;;5096132;28;20662;-48
2021/03/01 00:52:44;;;;;;;7.43;6.47;;;4.60;68.50;;;;;;5096535;28;20176;-51
2021/03/01 00:55:10;;;;;;;8.20;7.10;;;4.70;69.00;;;;;;5095618;28;20213;-54
2021/03/01 00:57:36;;;;;;;7.70;6.77;;;4.60;68.60;;;;;;5096734;28;20219;-48
2021/03/01 01:00:08;;;;;;;11.13;7.30;;;4.60;69.40;;;;;;5095936;28;20173;-49
2021/03/01 01:02:33;;;;;;;7.80;6.70;;;4.60;69.20;;;;;;5094351;28;20403;-55
2021/03/01 01:04:59;;;;;;;8.70;6.90;;;4.60;69.40;;;;;;5095874;28;20198;-54
2021/03/01 01:07:24;;;;;;;8.33;6.83;;;4.60;69.30;;;;;;5095836;28;20189;-47
2021/03/01 01:09:50;;;;;;;8.63;7.47;;;4.60;69.40;;;;;;5095052;28;20201;-48
2021/03/01 01:12:15;;;;;;;7.57;6.77;;;4.60;69.80;;;;;;5094908;28;20173;-48
2021/03/01 01:14:41;;;;;;;7.70;6.37;;;4.60;70.10;;;;;;5095307;28;20549;-52
2021/03/01 01:17:06;;;;;;;7.37;6.50;;;4.60;70.20;;;;;;5095287;28;20691;-49
2021/03/01 01:19:32;;;;;;;8.27;6.97;;;4.60;70.40;;;;;;5095005;28;20509;-57
2021/03/01 01:21:57;;;;;;;9.73;7.77;;;4.50;70.30;;;;;;5095054;28;20169;-48
2021/03/01 01:24:23;;;;;;;10.53;7.70;;;4.50;70.30;;;;;;5094723;28;20652;-47
2021/03/01 01:26:49;;;;;;;8.47;7.00;;;4.50;70.60;;;;;;5094390;28;20192;-47
2021/03/01 01:29:14;;;;;;;10.50;6.97;;;4.40;70.60;;;;;;5095574;28;20170;-53
2021/03/01 01:31:40;;;;;;;7.67;6.83;;;4.40;70.80;;;;;;5095050;28;20693;-47
2021/03/01 01:34:05;;;;;;;8.17;6.57;;;4.30;70.60;;;;;;5095017;28;20216;-48
2021/03/01 01:36:31;;;;;;;7.20;6.03;;;4.20;70.70;;;;;;5094530;28;20209;-49
2021/03/01 01:38:56;;;;;;;7.13;6.17;;;4.10;71.00;;;;;;5094754;28;20227;-47
2021/03/01 01:41:22;;;;;;;7.53;6.00;;;4.10;71.20;;;;;;5095017;28;20173;-51
2021/03/01 01:43:47;;;;;;;8.83;6.47;;;4.10;71.30;;;;;;5095296;28;20261;-47
2021/03/01 01:46:14;;;;;;;7.73;6.03;;;4.00;71.30;;;;;;5094294;28;20205;-47
2021/03/01 01:48:40;;;;;;;6.97;5.80;;;4.00;71.30;;;;;;5094499;28;20197;-48
2021/03/01 01:51:05;;;;;;;8.67;6.30;;;4.10;71.30;;;;;;5094166;28;20431;-50
2021/03/01 01:53:32;;;;;;;8.47;6.50;;;4.10;71.10;;;;;;5094867;28;20177;-53
2021/03/01 01:55:59;;;;;;;6.90;5.63;;;4.10;70.90;;;;;;5094172;28;20209;-48
2021/03/01 01:58:25;;;;;;;9.27;6.50;;;4.10;70.90;;;;;;5094278;28;20181;-52
2021/03/01 02:00:51;;;;;;;7.83;6.30;;;4.10;71.00;;;;;;5094574;28;20400;-50
2021/03/01 02:03:44;;;;;;;7.10;6.10;;;3.90;71.00;;;;;;5094441;28;20261;-48
2021/03/01 02:06:27;;;;;;;8.93;6.40;;;3.90;72.00;;;;;;5094991;28;20206;-52
2021/03/01 02:09:19;;;;;;;6.77;6.03;;;3.90;72.10;;;;;;5094267;28;20407;-47
2021/03/01 02:12:11;;;;;;;9.17;7.40;;;3.80;72.30;;;;;;5095553;28;20427;-58
2021/03/01 02:15:05;;;;;;;10.23;8.23;;;3.80;72.70;;;;;;5094032;28;20431;-47
2021/03/01 02:17:30;;;;;;;9.53;6.90;;;3.80;72.50;;;;;;5094404;28;20412;-47
2021/03/01 02:19:56;;;;;;;7.83;6.23;;;3.80;72.50;;;;;;5094322;28;20418;-50
2021/03/01 02:22:22;;;;;;;8.53;6.60;;;3.80;72.50;;;;;;5093843;28;20166;-52
2021/03/01 02:24:59;;;;;;;7.57;5.90;;;3.80;72.30;;;;;;5093810;28;20204;-48
2021/03/01 02:27:29;;;;;;;7.70;6.57;;;3.70;72.10;;;;;;5093761;28;20638;-55
2021/03/01 02:30:01;;;;;;;7.50;6.10;;;3.70;72.40;;;;;;5093952;28;20400;-47
2021/03/01 02:32:31;;;;;;;7.90;6.43;;;3.70;72.80;;;;;;5094170;28;20420;-48
2021/03/01 02:34:57;;;;;;;7.57;6.27;;;3.80;72.80;;;;;;5094659;28;20796;-47
2021/03/01 02:37:25;;;;;;;7.87;6.57;;;3.70;72.40;;;;;;5094304;28;20415;-52
2021/03/01 02:39:53;;;;;;;7.40;6.03;;;3.70;72.80;;;;;;5094188;28;20439;-47
2021/03/01 02:42:25;;;;;;;8.17;6.10;;;3.70;72.80;;;;;;5093564;28;20462;-50
2021/03/01 02:44:51;;;;;;;8.73;6.40;;;3.70;72.70;;;;;;5093986;28;20452;-50
2021/03/01 02:47:18;;;;;;;7.47;5.93;;;3.70;72.40;;;;;;5094898;28;20495;-47
2021/03/01 02:49:45;;;;;;;7.27;6.03;;;3.70;72.40;;;;;;5094282;28;20511;-51
2021/03/01 02:52:12;;;;;;;7.17;6.40;;;3.70;72.10;;;;;;5093562;28;20418;-48
2021/03/01 02:54:40;;;;;;;8.37;6.47;;;3.70;72.40;;;;;;5094114;28;20435;-55
2021/03/01 02:57:08;;;;;;;7.80;6.20;;;3.60;73.20;;;;;;5093907;28;20411;-58
2021/03/01 02:59:35;;;;;;;8.87;6.20;;;3.50;73.90;;;;;;5093890;28;20798;-48
2021/03/01 03:02:02;;;;;;;8.13;6.03;;;3.50;73.90;;;;;;5093905;28;20767;-57
2021/03/01 03:04:28;;;;;;;7.80;6.30;;;3.40;73.80;;;;;;5096133;28;20486;-51
2021/03/01 03:06:55;;;;;;;8.40;6.40;;;3.60;73.70;;;;;;5098510;28;20491;-52
2021/03/01 03:09:24;;;;;;;8.53;6.43;;;3.50;73.80;;;;;;5097124;28;20407;-52
2021/03/01 03:11:51;;;;;;;6.97;5.97;;;3.50;73.90;;;;;;5097943;28;20971;-58
2021/03/01 03:14:21;;;;;;;7.23;5.90;;;3.50;73.90;;;;;;5097674;28;20425;-53
2021/03/01 03:16:50;;;;;;;9.67;6.20;;;3.50;73.90;;;;;;5097668;28;20776;-53
2021/03/01 03:19:16;;;;;;;9.57;6.00;;;3.50;73.90;;;;;;5098293;28;20404;-56
2021/03/01 03:21:42;;;;;;;7.73;6.00;;;3.50;73.70;;;;;;5096502;28;20427;-46
2021/03/01 03:24:08;;;;;;;9.10;6.53;;;3.40;73.50;;;;;;5090960;28;20189;-48
2021/03/01 03:26:34;;;;;;;7.87;6.20;;;3.50;73.40;;;;;;5080780;28;20285;-49
2021/03/01 03:28:59;;;;;;;7.67;5.53;;;3.50;73.70;;;;;;5076625;28;20600;-56
2021/03/01 03:31:25;;;;;;;9.93;6.30;;;3.50;73.80;;;;;;5076910;28;20183;-48
2021/03/01 03:33:51;;;;;;;6.90;5.93;;;3.60;74.10;;;;;;5076880;28;20627;-57
2021/03/01 03:36:19;;;;;;;9.77;6.13;;;3.60;74.20;;;;;;5076288;28;20206;-49
2021/03/01 03:38:55;;;;;;;8.50;6.07;;;3.60;74.00;;;;;;5077064;28;20174;-52
2021/03/01 03:41:21;;;;;;;6.83;5.67;;;3.60;74.10;;;;;;5076201;28;20408;-49
2021/03/01 03:43:47;;;;;;;7.87;6.23;;;3.60;73.80;;;;;;5076293;28;20408;-47
2021/03/01 03:46:17;;;;;;;8.30;6.30;;;3.50;74.00;;;;;;5076510;28;20474;-47
2021/03/01 03:48:43;;;;;;;8.00;6.03;;;3.40;74.20;;;;;;5081975;28;20631;-50
2021/03/01 03:51:12;;;;;;;8.50;6.60;;;3.20;74.30;;;;;;5087016;28;20463;-49
2021/03/01 03:53:43;;;;;;;8.70;6.70;;;3.20;75.10;;;;;;5076979;28;20405;-48
2021/03/01 03:56:10;;;;;;;8.97;6.87;;;3.20;75.50;;;;;;5077092;28;20467;-48
2021/03/01 03:58:45;;;;;;;8.93;7.20;;;3.20;76.20;;;;;;5076859;28;20417;-47
2021/03/01 04:01:13;;;;;;;7.97;6.37;;;3.20;76.30;;;;;;5077289;28;20404;-55
2021/03/01 04:03:41;;;;;;;9.10;6.30;;;3.30;76.20;;;;;;5075998;28;20417;-48
2021/03/01 04:06:11;;;;;;;8.13;6.53;;;3.30;75.90;;;;;;5076138;28;20507;-47
2021/03/01 04:08:37;;;;;;;9.53;6.50;;;3.30;75.20;;;;;;5076419;28;20504;-48
2021/03/01 04:11:04;;;;;;;8.30;6.80;;;3.40;75.40;;;;;;5076604;28;20435;-48
2021/03/01 04:13:32;;;;;;;9.00;7.07;;;3.30;75.20;;;;;;5075932;28;20408;-47
2021/03/01 04:15:58;;;;;;;8.13;6.07;;;3.30;75.90;;;;;;5076233;28;20883;-52
2021/03/01 04:18:25;;;;;;;8.50;6.37;;;3.30;74.90;;;;;;5076027;28;20409;-52
2021/03/01 04:20:54;;;;;;;9.47;6.53;;;3.30;74.80;;;;;;5076436;28;20401;-51
2021/03/01 04:23:22;;;;;;;9.93;6.53;;;3.30;75.60;;;;;;5078426;28;20795;-51
2021/03/01 04:25:50;;;;;;;9.70;7.20;;;3.20;76.10;;;;;;5084926;28;20433;-58
2021/03/01 04:28:18;;;;;;;9.03;6.97;;;3.20;77.40;;;;;;5075547;28;20431;-46
2021/03/01 04:30:45;;;;;;;9.23;6.43;;;3.10;76.80;;;;;;5075867;28;20424;-48
2021/03/01 04:33:12;;;;;;;8.70;7.03;;;3.20;76.70;;;;;;5084830;28;20451;-47
2021/03/01 04:35:39;;;;;;;12.20;6.90;;;3.20;76.70;;;;;;5095838;28;20455;-54
2021/03/01 04:38:04;;;;;;;8.83;7.00;;;3.30;76.80;;;;;;5096158;28;20854;-56
2021/03/01 04:40:30;;;;;;;10.07;6.70;;;3.20;76.70;;;;;;5095951;28;20435;-47
2021/03/01 04:42:57;;;;;;;8.23;6.63;;;3.30;77.20;;;;;;5095314;28;20571;-49
2021/03/01 04:45:23;;;;;;;8.20;6.20;;;3.30;77.10;;;;;;5095266;28;20288;-47
2021/03/01 04:47:50;;;;;;;8.53;7.07;;;3.30;76.80;;;;;;5096331;28;20431;-48
2021/03/01 04:50:17;;;;;;;7.80;6.33;;;3.20;76.60;;;;;;5095704;28;20454;-51
2021/03/01 04:52:44;;;;;;;8.07;6.73;;;3.20;77.40;;;;;;5095525;28;20495;-52
2021/03/01 04:55:10;;;;;;;8.23;6.70;;;3.20;77.70;;;;;;5095549;28;20451;-54
2021/03/01 04:57:37;;;;;;;8.80;6.67;;;3.10;77.50;;;;;;5095642;28;20400;-48
2021/03/01 05:00:09;;;;;;;9.97;7.67;;;3.10;77.70;;;;;;5095467;28;20400;-56
2021/03/01 05:02:39;;;;;;;14.97;7.83;;;3.10;77.80;;;;;;5096252;28;20495;-47
2021/03/01 05:05:06;;;;;;;9.93;7.20;;;3.20;77.70;;;;;;5095697;28;20455;-57
2021/03/01 05:07:32;;;;;;;9.67;7.17;;;3.20;77.50;;;;;;5095453;28;20418;-54
2021/03/01 05:09:59;;;;;;;17.13;10.73;;;3.20;77.20;;;;;;5095004;28;20431;-47
2021/03/01 05:12:24;;;;;;;9.57;7.30;;;3.20;77.10;;;;;;5093463;28;20498;-48
2021/03/01 05:14:51;;;;;;;10.40;7.40;;;3.20;77.50;;;;;;5095050;28;20489;-55
2021/03/01 05:17:16;;;;;;;9.23;6.67;;;3.10;77.70;;;;;;5095013;28;20253;-57
2021/03/01 05:19:42;;;;;;;9.13;7.50;;;3.20;77.30;;;;;;5095134;28;20439;-46
2021/03/01 05:22:07;;;;;;;9.07;7.37;;;3.10;77.40;;;;;;5094677;28;20172;-46
2021/03/01 05:24:33;;;;;;;9.90;7.00;;;3.10;77.30;;;;;;5082324;28;20247;-46
2021/03/01 05:26:59;;;;;;;8.57;6.87;;;3.10;77.60;;;;;;5082558;28;20577;-54
2021/03/01 05:29:25;;;;;;;10.63;7.17;;;3.10;77.40;;;;;;5074796;28;20544;-54
2021/03/01 05:31:51;;;;;;;10.60;7.07;;;3.10;77.10;;;;;;5074327;28;20876;-53
2021/03/01 05:34:16;;;;;;;10.93;6.67;;;3.00;77.10;;;;;;5074445;28;20626;-53
2021/03/01 05:36:43;;;;;;;11.03;7.37;;;2.90;77.40;;;;;;5074505;28;20198;-52
2021/03/01 05:39:08;;;;;;;13.40;8.37;;;2.90;78.60;;;;;;5074459;28;20175;-50
2021/03/01 05:41:35;;;;;;;12.30;8.53;;;2.90;79.20;;;;;;5073878;28;20472;-53
2021/03/01 05:44:00;;;;;;;13.60;7.67;;;2.90;79.00;;;;;;5074898;28;20181;-48
2021/03/01 05:46:27;;;;;;;13.57;8.90;;;2.90;78.90;;;;;;5074158;28;20432;-55
2021/03/01 05:48:56;;;;;;;15.00;9.13;;;2.80;79.00;;;;;;5074359;28;20177;-50
2021/03/01 05:51:25;;;;;;;12.77;8.70;;;2.90;79.20;;;;;;5074063;28;20405;-51
2021/03/01 05:53:53;;;;;;;14.93;9.67;;;2.90;79.30;;;;;;5074146;28;20413;-53
2021/03/01 05:56:20;;;;;;;14.20;9.47;;;2.90;79.30;;;;;;5074141;28;20486;-52
2021/03/01 05:58:46;;;;;;;14.37;9.67;;;2.80;79.20;;;;;;5074016;28;20490;-48
2021/03/01 06:01:11;;;;;;;10.93;7.70;;;2.70;80.30;;;;;;5073710;28;20443;-56
2021/03/01 06:03:37;;;;;;;12.87;8.77;;;2.60;80.80;;;;;;5074227;28;20166;-49
2021/03/01 06:06:05;;;;;;;11.03;8.03;;;2.60;82.30;;;;;;5074115;28;20210;-56
2021/03/01 06:08:31;;;;;;;12.63;9.20;;;2.60;83.50;;;;;;5073788;28;20409;-47
2021/03/01 06:11:02;;;;;;;11.73;8.70;;;2.60;83.30;;;;;;5073551;28;20436;-53
2021/03/01 06:13:28;;;;;;;9.87;7.23;;;2.70;83.00;;;;;;5073970;28;20412;-53
2021/03/01 06:15:55;;;;;;;10.00;7.37;;;2.70;82.50;;;;;;5073887;28;20461;-47
2021/03/01 06:18:21;;;;;;;9.10;7.07;;;2.80;82.40;;;;;;5073657;28;20474;-51
2021/03/01 06:20:47;;;;;;;9.53;7.20;;;2.80;82.40;;;;;;5073823;28;20888;-57
2021/03/01 06:23:28;;;;;;;10.10;7.37;;;2.80;82.40;;;;;;5073279;28;20486;-57
2021/03/01 06:25:53;;;;;;;10.70;8.63;;;2.90;82.80;;;;;;5072511;28;20197;-50
2021/03/01 06:28:27;;;;;;;11.30;8.60;;;2.90;82.90;;;;;;5073587;28;20503;-47
2021/03/01 06:30:53;;;;;;;10.17;8.30;;;2.90;82.60;;;;;;5073704;28;20175;-48
2021/03/01 06:33:18;;;;;;;10.87;8.20;;;3.00;82.30;;;;;;5073657;28;20516;-48
2021/03/01 06:36:02;;;;;;;13.57;9.60;;;3.10;81.70;;;;;;5073486;28;20279;-48
2021/03/01 06:38:29;;;;;;;17.43;12.37;;;3.30;81.40;;;;;;5075579;28;20198;-54
2021/03/01 06:41:13;;;;;;;19.17;14.03;;;3.30;81.40;;;;;;5079193;28;21034;-50
2021/03/01 06:43:41;;;;;;;14.93;11.30;;;3.40;80.70;;;;;;5089798;28;20980;-47
2021/03/01 06:46:14;;;;;;;13.77;10.90;;;3.50;81.00;;;;;;5098114;28;20432;-52
2021/03/01 06:48:42;;;;;;;14.53;11.33;;;3.50;80.70;;;;;;5097993;28;20419;-47
2021/03/01 06:51:09;;;;;;;15.40;10.87;;;3.70;80.00;;;;;;5097574;28;20956;-52
2021/03/01 06:53:36;;;;;;;13.37;9.50;;;3.80;79.60;;;;;;5097516;28;20449;-47
2021/03/01 06:56:08;;;;;;;11.03;8.40;;;3.90;79.20;;;;;;5095936;28;20456;-48
2021/03/01 06:58:44;;;;;;;10.40;7.80;;;3.90;79.30;;;;;;5097971;28;20918;-50
2021/03/01 07:01:19;;;;;;;9.80;7.53;;;4.00;79.80;;;;;;5097958;28;20802;-52
2021/03/01 07:03:46;;;;;;;15.27;8.97;;;4.10;79.60;;;;;;5098195;28;20555;-52
2021/03/01 07:06:12;;;;;;;10.83;8.77;;;4.30;79.60;;;;;;5098629;28;20515;-53
2021/03/01 07:08:40;;;;;;;9.83;7.87;;;4.30;78.90;;;;;;5097845;28;20496;-50
2021/03/01 07:11:28;;;;;;;9.67;7.57;;;4.30;78.60;;;;;;5097535;28;20672;-54
2021/03/01 07:14:04;;;;;;;8.23;7.13;;;4.10;78.60;;;;;;5097345;28;20174;-47
2021/03/01 07:16:47;;;;;;;8.47;7.00;;;4.10;80.90;;;;;;5096961;28;20207;-46
2021/03/01 07:19:14;;;;;;;9.77;7.80;;;4.30;80.80;;;;;;5097624;28;20174;-52
2021/03/01 07:21:43;;;;;;;10.40;8.00;;;4.60;80.40;;;;;;5097648;28;20173;-46
2021/03/01 07:24:10;;;;;;;10.23;8.30;;;4.80;80.30;;;;;;5097587;28;20173;-48
2021/03/01 07:26:36;;;;;;;10.80;8.97;;;5.00;79.80;;;;;;5098193;28;20197;-48
2021/03/01 07:29:12;;;;;;;13.10;10.60;;;5.20;79.90;;;;;;5096840;28;20680;-57
2021/03/01 07:31:56;;;;;;;15.17;11.80;;;5.30;79.20;;;;;;5097861;28;20257;-48
2021/03/01 07:34:23;;;;;;;16.73;11.80;;;5.50;79.70;;;;;;5096684;28;20257;-53
2021/03/01 07:36:49;;;;;;;12.73;9.70;;;5.60;79.60;;;;;;5098309;28;20204;-47
2021/03/01 07:39:15;;;;;;;10.93;8.80;;;5.80;78.80;;;;;;5097638;28;20202;-55
2021/03/01 07:41:40;;;;;;;12.40;8.73;;;6.00;78.40;;;;;;5093274;28;20206;-55
2021/03/01 07:44:08;;;;;;;11.83;8.17;;;6.10;78.20;;;;;;5092331;28;20212;-47
2021/03/01 07:46:39;;;;;;;11.47;8.53;;;6.30;78.80;;;;;;5078512;28;20241;-49
2021/03/01 07:49:04;;;;;;;11.53;8.70;;;6.30;79.30;;;;;;5083932;28;20642;-48
2021/03/01 07:51:47;;;;;;;10.47;8.43;;;6.50;79.70;;;;;;5096336;28;20178;-54
2021/03/01 07:54:17;;;;;;;10.87;8.77;;;6.70;79.80;;;;;;5080369;28;20186;-54
2021/03/01 07:56:50;;;;;;;11.37;8.60;;;6.80;79.20;;;;;;5077266;28;20299;-48
2021/03/01 07:59:23;;;;;;;9.80;7.90;;;6.80;78.90;;;;;;5076496;28;20170;-51
2021/03/01 08:02:10;;;;;;;9.50;7.80;;;6.80;79.70;;;;;;5076696;28;20257;-56
2021/03/01 08:04:36;;;;;;;11.23;8.70;;;7.00;80.90;;;;;;5076036;28;20245;-48
2021/03/01 08:07:02;;;;;;;12.10;8.40;;;7.20;81.30;;;;;;5090247;28;20725;-49
2021/03/01 08:09:48;;;;;;;11.07;8.57;;;7.30;80.40;;;;;;5093946;28;20190;-50
2021/03/01 08:12:38;;;;;;;12.43;8.80;;;7.50;80.70;;;;;;5075740;28;20162;-51
2021/03/01 08:15:07;;;;;;;12.90;9.00;;;7.60;79.80;;;;;;5075971;28;20202;-52
2021/03/01 08:17:38;;;;;;;10.97;8.50;;;7.70;79.40;;;;;;5088583;28;20205;-56
2021/03/01 08:20:12;;;;;;;12.63;8.80;;;7.90;79.20;;;;;;5090597;28;20216;-52
2021/03/01 08:23:07;;;;;;;12.87;9.03;;;8.00;78.40;;;;;;5095739;28;20263;-53
2021/03/01 08:25:54;;;;;;;13.63;9.00;;;8.30;79.40;;;;;;5095850;28;20208;-57
2021/03/01 08:28:22;;;;;;;9.90;8.57;;;8.60;78.40;;;;;;5096115;28;20556;-47
2021/03/01 08:30:49;;;;;;;10.67;8.83;;;8.90;77.40;;;;;;5076953;28;20183;-57
2021/03/01 08:33:15;;;;;;;10.90;9.00;;;9.30;76.10;;;;;;5075645;28;20177;-47
2021/03/01 08:35:48;;;;;;;10.07;8.23;;;9.60;75.00;;;;;;5075030;28;20206;-53
2021/03/01 08:38:15;;;;;;;9.87;8.27;;;9.80;76.60;;;;;;5072338;28;20201;-57
2021/03/01 08:40:56;;;;;;;8.93;7.70;;;9.90;76.20;;;;;;5075359;28;20171;-57
2021/03/01 08:43:31;;;;;;;9.67;8.50;;;10.10;74.20;;;;;;5085729;28;20193;-51
2021/03/01 08:45:58;;;;;;;9.70;8.13;;;10.40;72.90;;;;;;5087815;28;20285;-52
2021/03/01 08:48:24;;;;;;;9.23;7.97;;;10.70;72.50;;;;;;5079131;28;20598;-46
2021/03/01 08:50:51;;;;;;;10.17;8.60;;;11.20;71.40;;;;;;5090589;28;20198;-54
2021/03/01 08:53:28;;;;;;;9.80;8.33;;;11.70;69.30;;;;;;5085308;28;20268;-55
2021/03/01 08:55:55;;;;;;;11.00;8.77;;;12.60;67.40;;;;;;5075746;28;20230;-58
2021/03/01 08:58:22;;;;;;;9.97;7.80;;;13.30;65.10;;;;;;5074198;28;20561;-48
2021/03/01 09:00:54;;;;;;;9.57;8.20;;;14.30;62.80;;;;;;5078197;28;20567;-48
2021/03/01 09:03:28;;;;;;;9.43;7.50;;;16.00;60.70;;;;;;5091011;28;20189;-52
2021/03/01 09:06:05;;;;;;;9.37;7.70;;;16.70;58.20;;;;;;5095647;28;20193;-55
2021/03/01 09:08:39;;;;;;;9.30;7.57;;;18.00;54.90;;;;;;5095380;28;20242;-48
2021/03/01 09:11:11;;;;;;;8.37;7.40;;;19.30;51.50;;;;;;5086298;28;20212;-49
2021/03/01 09:13:37;;;;;;;9.65;7.75;;;20.70;49.20;;;;;;5075243;28;20163;-50
2021/03/01 09:16:04;;;;;;;8.77;7.88;;;21.90;46.50;;;;;;5074576;28;20232;-50
2021/03/01 09:18:31;;;;;;;8.00;7.20;;;23.10;44.30;;;;;;5074629;28;20725;-53
2021/03/01 09:20:57;;;;;;;7.40;6.68;;;23.80;42.90;;;;;;5074719;28;20167;-48
2021/03/01 09:23:37;;;;;;;6.95;6.25;;;24.80;41.30;;;;;;5074587;28;20254;-57
2021/03/01 09:26:07;;;;;;;7.53;6.80;;;26.30;39.90;;;;;;5074938;28;20190;-56
2021/03/01 09:28:35;;;;;;;8.25;6.75;;;27.50;37.30;;;;;;5075236;28;20666;-51
2021/03/01 09:31:07;;;;;;;7.05;6.35;;;28.70;36.90;;;;;;5074775;28;20201;-50
2021/03/01 09:33:33;;;;;;;6.75;6.15;;;29.60;34.70;;;;;;5074707;28;20179;-54
2021/03/01 09:35:59;;;;;;;6.00;5.50;;;30.20;33.10;;;;;;5089436;28;20214;-48
2021/03/01 09:38:24;;;;;;;5.53;5.03;;;30.90;33.60;;;;;;5095021;28;20170;-51
2021/03/01 09:41:00;;;;;;;6.03;5.43;;;32.30;32.50;;;;;;5075217;28;20206;-50
2021/03/01 09:43:26;;;;;;;5.05;4.65;;;34.10;30.20;;;;;;5074805;28;20224;-49
2021/03/01 09:45:52;;;;;;;4.85;4.45;;;34.50;29.50;;;;;;5083730;28;20202;-58
2021/03/01 09:48:18;;;;;;;5.50;5.00;;;34.80;28.50;;;;;;5094592;28;20564;-54
2021/03/01 09:50:44;;;;;;;5.18;4.68;;;35.30;28.40;;;;;;5095138;28;20177;-53
2021/03/01 09:53:10;;;;;;;5.25;4.75;;;36.60;27.60;;;;;;5094232;28;20177;-51
2021/03/01 09:55:36;;;;;;;5.25;4.75;;;36.60;27.20;;;;;;5075978;28;20288;-48
2021/03/01 09:58:20;;;;;;;5.07;4.60;;;35.90;27.10;;;;;;5079569;28;20260;-55
2021/03/01 10:00:46;;;;;;;4.88;4.47;;;35.60;27.50;;;;;;5094848;28;20235;-58
2021/03/01 10:03:11;;;;;;;4.90;4.50;;;36.80;26.50;;;;;;5081504;28;20267;-57
2021/03/01 10:05:45;;;;;;;4.80;4.40;;;37.40;26.00;;;;;;5085249;28;20205;-59
2021/03/01 10:08:19;;;;;;;4.80;4.32;;;37.50;25.60;;;;;;5094182;28;20656;-51
2021/03/01 10:10:45;;;;;;;4.53;4.13;;;38.10;25.60;;;;;;5092434;28;20652;-57
2021/03/01 10:13:10;;;;;;;5.38;4.95;;;39.00;25.00;;;;;;5090113;28;20193;-58
2021/03/01 10:15:46;;;;;;;4.78;4.38;;;36.90;25.20;;;;;;5083078;28;20284;-49
2021/03/01 10:18:15;;;;;;;4.90;4.40;;;35.80;26.60;;;;;;5094106;28;20218;-54
2021/03/01 10:20:55;;;;;;;5.55;5.05;;;36.60;26.00;;;;;;5087671;28;20204;-55
2021/03/01 10:23:35;;;;;;;5.95;5.13;;;35.80;25.90;;;;;;5074274;28;20645;-51
2021/03/01 10:26:17;;;;;;;5.63;5.10;;;34.90;26.50;;;;;;5073943;28;20197;-50
2021/03/01 10:28:53;;;;;;;5.18;4.70;;;34.50;26.80;;;;;;5074932;28;20638;-52
2021/03/01 10:31:22;;;;;;;4.65;4.25;;;35.10;26.60;;;;;;5073803;28;20184;-51
2021/03/01 10:33:59;;;;;;;5.40;4.90;;;36.70;26.30;;;;;;5073438;28;20198;-59
2021/03/01 10:36:51;;;;;;;5.47;4.97;;;36.10;25.90;;;;;;5073916;28;20213;-58
2021/03/01 10:39:32;;;;;;;4.38;4.03;;;34.30;26.70;;;;;;5092094;28;20181;-58
2021/03/01 10:42:11;;;;;;;4.65;4.25;;;33.00;27.30;;;;;;5081699;28;20238;-55
2021/03/01 10:44:37;;;;;;;3.75;3.33;;;32.40;28.00;;;;;;5094198;28;20197;-52
2021/03/01 10:47:25;;;;;;;3.95;3.63;;;33.10;27.80;;;;;;5093756;28;20186;-56
2021/03/01 10:49:57;;;;;;;3.47;3.20;;;33.00;27.10;;;;;;5094077;28;20715;-54
2021/03/01 10:52:24;;;;;;;3.42;3.13;;;32.30;28.40;;;;;;5093318;28;20178;-56
2021/03/01 10:54:54;;;;;;;3.80;3.40;;;32.90;27.90;;;;;;5093934;28;20201;-59
2021/03/01 10:57:21;;;;;;;3.78;3.47;;;33.00;27.70;;;;;;5094420;28;20174;-52
2021/03/01 10:59:50;;;;;;;3.40;3.10;;;32.80;28.50;;;;;;5093766;28;20166;-56
2021/03/01 11:02:16;;;;;;;3.30;3.08;;;32.70;27.60;;;;;;5093353;28;20177;-49
2021/03/01 11:04:42;;;;;;;3.50;3.20;;;33.10;27.70;;;;;;5093407;28;20537;-51
2021/03/01 11:07:07;;;;;;;3.75;3.40;;;33.80;27.70;;;;;;5093868;28;20162;-50
2021/03/01 11:09:33;;;;;;;4.40;3.38;;;33.80;27.00;;;;;;5093551;28;20657;-51
2021/03/01 11:11:59;;;;;;;3.53;3.22;;;34.30;27.10;;;;;;5093334;28;20213;-53
2021/03/01 11:14:24;;;;;;;4.38;3.97;;;34.60;26.80;;;;;;5093821;28;20522;-50
2021/03/01 11:16:52;;;;;;;4.13;3.72;;;35.00;26.70;;;;;;5093829;28;20245;-55
2021/03/01 11:19:18;;;;;;;4.10;3.80;;;33.70;27.00;;;;;;5093763;28;20590;-58
2021/03/01 11:21:46;;;;;;;3.70;3.40;;;32.60;27.40;;;;;;5093917;28;20190;-58
2021/03/01 11:24:12;;;;;;;3.72;3.42;;;31.70;28.30;;;;;;5093726;28;20166;-57
2021/03/01 11:26:38;;;;;;;3.60;3.30;;;32.10;28.10;;;;;;5096943;28;20198;-54
2021/03/01 11:29:04;;;;;;;3.05;2.75;;;32.80;27.30;;;;;;5096514;28;20174;-51
2021/03/01 11:31:32;;;;;;;3.33;3.03;;;32.60;27.40;;;;;;5097372;28;20182;-58
2021/03/01 11:34:01;;;;;;;3.25;3.00;;;32.70;28.20;;;;;;5097529;28;20174;-58
2021/03/01 11:36:27;;;;;;;3.35;3.13;;;34.00;27.80;;;;;;5096448;28;20231;-56
2021/03/01 11:38:53;;;;;;;3.00;2.80;;;35.30;26.00;;;;;;5097082;28;20178;-53
2021/03/01 11:41:19;;;;;;;3.17;2.97;;;35.30;26.00;;;;;;5096719;28;20177;-53
2021/03/01 11:43:44;;;;;;;3.22;2.92;;;35.40;25.90;;;;;;5097432;28;20195;-59
2021/03/01 11:46:10;;;;;;;3.15;2.83;;;35.20;26.10;;;;;;5096883;28;20693;-59
2021/03/01 11:48:36;;;;;;;2.88;2.67;;;34.90;26.60;;;;;;5097196;28;20681;-52
2021/03/01 11:51:02;;;;;;;3.17;2.80;;;35.00;26.80;;;;;;5096495;28;20594;-49
2021/03/01 11:53:27;;;;;;;2.83;2.63;;;33.50;26.80;;;;;;5096627;28;20252;-55
2021/03/01 11:55:53;;;;;;;3.58;2.92;;;32.50;27.60;;;;;;5096442;28;20206;-50
2021/03/01 11:58:18;;;;;;;3.35;3.05;;;31.10;28.50;;;;;;5096728;28;20170;-57
2021/03/01 12:00:44;;;;;;;3.00;2.70;;;31.50;29.10;;;;;;5096551;28;20249;-60
2021/03/01 12:03:11;;;;;;;3.58;2.97;;;32.40;28.80;;;;;;5096464;28;20174;-60
2021/03/01 12:05:38;;;;;;;3.00;2.80;;;33.40;28.10;;;;;;5096406;28;20557;-58
2021/03/01 12:08:04;;;;;;;3.35;3.03;;;34.00;26.90;;;;;;5096446;28;20257;-56
2021/03/01 12:10:31;;;;;;;3.17;2.97;;;32.10;28.30;;;;;;5096044;28;20218;-49
2021/03/01 12:12:57;;;;;;;3.10;2.90;;;31.40;28.30;;;;;;5095991;28;20526;-57
2021/03/01 12:15:23;;;;;;;3.58;3.15;;;29.40;30.10;;;;;;5095880;28;20721;-57
2021/03/01 12:17:48;;;;;;;3.58;3.28;;;29.90;30.60;;;;;;5096178;28;20166;-56
2021/03/01 12:20:14;;;;;;;3.40;3.00;;;29.90;29.60;;;;;;5096087;28;20224;-60
2021/03/01 12:22:39;;;;;;;3.35;3.05;;;30.20;29.70;;;;;;5096092;28;20177;-49
2021/03/01 12:25:06;;;;;;;3.40;3.10;;;30.80;29.70;;;;;;5096070;28;20719;-57
2021/03/01 12:27:31;;;;;;;3.90;3.42;;;30.50;29.10;;;;;;5095864;28;20202;-57
2021/03/01 12:29:57;;;;;;;3.03;2.83;;;30.50;29.90;;;;;;5096198;28;20178;-50
2021/03/01 12:32:22;;;;;;;3.00;2.70;;;29.70;29.70;;;;;;5095601;28;20206;-50
2021/03/01 12:34:48;;;;;;;2.88;2.40;;;30.00;30.60;;;;;;5095978;28;20193;-60
2021/03/01 12:37:14;;;;;;;3.20;2.95;;;31.20;29.90;;;;;;5095568;28;20166;-57
2021/03/01 12:39:40;;;;;;;2.97;2.78;;;32.00;28.60;;;;;;5095808;28;20175;-50
2021/03/01 12:42:06;;;;;;;3.13;2.80;;;31.50;28.70;;;;;;5095512;28;20203;-50
2021/03/01 12:44:33;;;;;;;2.30;2.10;;;31.10;28.90;;;;;;5095669;28;20644;-52
2021/03/01 12:46:58;;;;;;;2.80;2.60;;;30.90;29.50;;;;;;5095458;28;20522;-56
2021/03/01 12:49:24;;;;;;;2.30;2.10;;;30.40;29.40;;;;;;5095941;28;20280;-55
2021/03/01 12:51:50;;;;;;;2.50;2.30;;;29.90;30.00;;;;;;5095416;28;20181;-59
2021/03/01 12:54:16;;;;;;;2.30;2.10;;;29.60;30.10;;;;;;5095940;28;20194;-49
2021/03/01 12:56:41;;;;;;;2.15;2.00;;;29.90;29.70;;;;;;5095481;28;20285;-52
2021/03/01 12:59:07;;;;;;;1.80;1.70;;;29.80;29.50;;;;;;5095663;28;20645;-49